YTN weather

Yucatan Airstrip
Mexicali, Baja California, Mexico

Public forecast

Using degrees Celsius for public forecast. Weather courtesy of forecast.io.

METAR (pilot weather report)

Closest report is General Rodolfo Sánchez Taboada International Airport, 8.1 nm (15.0 km) W. Retrieved 2019/08/19 21:41 UTC (54 minutes ago):

MMML 192141Z 09004KT 10SM SKC 42/04 A2977

TAF (pilot weather forecast)

Closest forecast is General Rodolfo Sánchez Taboada International Airport, 8.1 nm (15.0 km) W. Retrieved 2019/08/19 18:36 UTC (4 hours ago):

TAF MMML 191629Z 1918/2018 20012KT P6SM SKC FM200300 00000KT P6SM SKC